Time,TemperatureF,DewpointF,PressureIn,WindDirection,WindDirectionDegrees,WindSpeedMPH,WindSpeedGustMPH,Humidity,HourlyPrecipIn,Conditions,Clouds,dailyrainin,SolarRadiationWatts/m^2,SoftwareType,DateUTC
2013-01-06 00:00:00,37.8,26.7,30.16,South,171,0.0,0.0,64,0.00,,,0.00,0.00,VWS V14.01,2013-01-06 05:00:00,
2013-01-06 00:02:00,37.8,26.7,30.16,South,171,0.0,0.0,64,0.00,,,0.00,0.00,VWS V14.01,2013-01-06 05:02:00,
2013-01-06 00:03:00,37.8,26.7,30.16,South,171,0.0,0.0,64,0.00,,,0.00,0.00,VWS V14.01,2013-01-06 05:03:00,
2013-01-06 00:08:00,37.7,26.6,30.16,South,171,0.0,0.0,64,0.00,,,0.00,0.00,VWS V14.01,2013-01-06 05:08:00,
2013-01-06 00:10:00,37.7,26.6,30.16,South,171,0.0,0.0,64,0.00,,,0.00,0.00,VWS V14.01,2013-01-06 05:10:00,
2013-01-06 00:15:00,37.7,26.6,30.15,SW,219,4.0,4.0,64,0.00,,,0.00,0.00,VWS V14.01,2013-01-06 05:15:00,
2013-01-06 00:20:00,37.7,26.3,30.15,South,191,0.0,4.0,63,0.00,,,0.00,0.00,VWS V14.01,2013-01-06 05:20:00,
2013-01-06 00:25:00,37.7,27.0,30.14,South,183,0.0,2.0,65,0.00,,,0.00,0.00,VWS V14.01,2013-01-06 05:25:00,
2013-01-06 00:30:00,37.7,26.6,30.13,South,175,1.0,1.0,64,0.00,,,0.00,0.00,VWS V14.01,2013-01-06 05:30:00,
2013-01-06 00:35:00,37.8,27.1,30.14,SSE,167,3.0,4.0,65,0.00,,,0.00,0.00,VWS V14.01,2013-01-06 05:35:00,
2013-01-06 00:40:00,37.8,27.1,30.14,South,177,1.0,2.0,65,0.00,,,0.00,0.00,VWS V14.01,2013-01-06 05:40:00,
2013-01-06 00:45:00,37.9,27.2,30.14,South,178,0.0,0.0,65,0.00,,,0.00,0.00,VWS V14.01,2013-01-06 05:45:00,
2013-01-06 00:51:00,37.9,27.2,30.14,NNW,336,6.0,9.0,65,0.00,,,0.00,0.00,VWS V14.01,2013-01-06 05:51:00,
2013-01-06 00:56:00,37.5,27.9,30.15,NNW,347,0.0,0.0,68,0.00,,,0.00,0.00,VWS V14.01,2013-01-06 05:56:00,
2013-01-06 01:01:00,37.1,28.2,30.15,NW,315,0.0,3.0,70,0.00,,,0.00,0.00,VWS V14.01,2013-01-06 06:01:00,
2013-01-06 01:06:00,36.6,27.8,30.14,NW,315,0.0,0.0,70,0.00,,,0.00,0.00,VWS V14.01,2013-01-06 06:06:00,
2013-01-06 01:11:00,36.2,27.4,30.13,NW,315,0.0,0.0,70,0.00,,,0.00,0.00,VWS V14.01,2013-01-06 06:11:00,
2013-01-06 01:16:00,36.0,27.5,30.14,NW,315,0.0,0.0,71,0.00,,,0.00,0.00,VWS V14.01,2013-01-06 06:16:00,
2013-01-06 01:21:00,35.9,27.4,30.13,NW,315,0.0,0.0,71,0.00,,,0.00,0.00,VWS V14.01,2013-01-06 06:21:00,
2013-01-06 01:26:00,35.7,27.9,30.13,NW,315,0.0,0.0,73,0.00,,,0.00,0.00,VWS V14.01,2013-01-06 06:26:00,
2013-01-06 01:31:00,35.6,27.8,30.13,NW,315,0.0,0.0,73,0.00,,,0.00,0.00,VWS V14.01,2013-01-06 06:31:00,
2013-01-06 01:36:00,35.4,27.6,30.13,NW,315,0.0,0.0,73,0.00,,,0.00,0.00,VWS V14.01,2013-01-06 06:36:00,
2013-01-06 01:42:00,35.3,27.9,30.12,NW,315,0.0,0.0,74,0.00,,,0.00,0.00,VWS V14.01,2013-01-06 06:42:00,
2013-01-06 01:47:00,35.2,27.8,30.13,NW,315,0.0,0.0,74,0.00,,,0.00,0.00,VWS V14.01,2013-01-06 06:47:00,
2013-01-06 01:52:00,35.1,28.0,30.12,NW,315,0.0,0.0,75,0.00,,,0.00,0.00,VWS V14.01,2013-01-06 06:52:00,
2013-01-06 01:57:00,35.0,28.2,30.13,NW,326,5.0,6.0,76,0.00,,,0.00,0.00,VWS V14.01,2013-01-06 06:57:00,
2013-01-06 02:02:00,34.6,27.8,30.13,NW,326,0.0,2.0,76,0.00,,,0.00,0.00,VWS V14.01,2013-01-06 07:02:00,
2013-01-06 02:07:00,34.5,27.7,30.13,NNW,327,1.0,1.0,76,0.00,,,0.00,0.00,VWS V14.01,2013-01-06 07:07:00,
2013-01-06 02:12:00,34.4,27.6,30.13,NW,311,0.0,2.0,76,0.00,,,0.00,0.00,VWS V14.01,2013-01-06 07:12:00,
2013-01-06 02:17:00,34.4,27.6,30.14,NW,311,1.0,2.0,76,0.00,,,0.00,0.00,VWS V14.01,2013-01-06 07:17:00,
2013-01-06 02:22:00,34.4,27.6,30.13,NW,312,0.0,0.0,76,0.00,,,0.00,0.00,VWS V14.01,2013-01-06 07:22:00,
2013-01-06 02:28:00,34.4,27.6,30.13,NW,312,1.0,2.0,76,0.00,,,0.00,0.00,VWS V14.01,2013-01-06 07:28:00,
2013-01-06 02:33:00,34.4,27.3,30.13,NW,312,0.0,0.0,75,0.00,,,0.00,0.00,VWS V14.01,2013-01-06 07:33:00,
2013-01-06 02:38:00,34.4,27.3,30.13,NW,311,0.0,0.0,75,0.00,,,0.00,0.00,VWS V14.01,2013-01-06 07:38:00,
2013-01-06 02:43:00,34.4,27.3,30.13,NW,311,0.0,0.0,75,0.00,,,0.00,0.00,VWS V14.01,2013-01-06 07:43:00,
2013-01-06 02:48:00,34.4,27.3,30.12,NW,311,0.0,1.0,75,0.00,,,0.00,0.00,VWS V14.01,2013-01-06 07:48:00,
2013-01-06 02:53:00,34.4,27.6,30.12,NW,311,0.0,0.0,76,0.00,,,0.00,0.00,VWS V14.01,2013-01-06 07:53:00,
2013-01-06 02:58:00,34.3,27.5,30.12,NW,311,1.0,1.0,76,0.00,,,0.00,0.00,VWS V14.01,2013-01-06 07:58:00,
2013-01-06 03:04:00,34.2,27.8,30.12,NW,311,0.0,0.0,77,0.00,,,0.00,0.00,VWS V14.01,2013-01-06 08:04:00,
2013-01-06 03:09:00,34.2,27.8,30.12,NW,311,0.0,0.0,77,0.00,,,0.00,0.00,VWS V14.01,2013-01-06 08:09:00,
2013-01-06 03:14:00,34.1,27.7,30.12,NW,311,0.0,0.0,77,0.00,,,0.00,0.00,VWS V14.01,2013-01-06 08:14:00,
2013-01-06 03:19:00,34.1,27.7,30.12,NW,311,0.0,0.0,77,0.00,,,0.00,0.00,VWS V14.01,2013-01-06 08:19:00,
2013-01-06 03:24:00,34.0,27.6,30.11,NW,311,0.0,0.0,77,0.00,,,0.00,0.00,VWS V14.01,2013-01-06 08:24:00,
2013-01-06 03:29:00,33.9,27.8,30.11,NW,312,0.0,0.0,78,0.00,,,0.00,0.00,VWS V14.01,2013-01-06 08:29:00,
2013-01-06 03:34:00,33.8,28.0,30.11,NW,312,0.0,0.0,79,0.00,,,0.00,0.00,VWS V14.01,2013-01-06 08:34:00,
2013-01-06 03:40:00,33.8,28.0,30.12,NW,312,0.0,0.0,79,0.00,,,0.00,0.00,VWS V14.01,2013-01-06 08:40:00,
2013-01-06 03:45:00,33.7,27.9,30.12,NW,311,0.0,0.0,79,0.00,,,0.00,0.00,VWS V14.01,2013-01-06 08:45:00,
2013-01-06 03:50:00,33.6,27.8,30.11,NW,312,0.0,0.0,79,0.00,,,0.00,0.00,VWS V14.01,2013-01-06 08:50:00,
2013-01-06 03:55:00,33.5,27.7,30.11,NW,312,0.0,0.0,79,0.00,,,0.00,0.00,VWS V14.01,2013-01-06 08:55:00,
2013-01-06 04:00:00,33.5,27.7,30.11,NW,312,0.0,0.0,79,0.00,,,0.00,0.00,VWS V14.01,2013-01-06 09:00:00,
2013-01-06 04:05:00,33.5,27.7,30.11,NW,311,0.0,0.0,79,0.00,,,0.00,0.00,VWS V14.01,2013-01-06 09:05:00,
2013-01-06 04:10:00,33.4,27.6,30.11,NW,312,0.0,0.0,79,0.00,,,0.00,0.00,VWS V14.01,2013-01-06 09:10:00,
2013-01-06 04:15:00,33.4,27.3,30.11,NW,312,0.0,0.0,78,0.00,,,0.00,0.00,VWS V14.01,2013-01-06 09:15:00,
2013-01-06 04:20:00,33.3,27.2,30.11,NW,312,0.0,0.0,78,0.00,,,0.00,0.00,VWS V14.01,2013-01-06 09:20:00,
2013-01-06 04:25:00,33.3,27.2,30.10,NW,312,0.0,0.0,78,0.00,,,0.00,0.00,VWS V14.01,2013-01-06 09:25:00,
2013-01-06 04:30:00,33.2,27.1,30.11,NW,312,0.0,0.0,78,0.00,,,0.00,0.00,VWS V14.01,2013-01-06 09:30:00,
2013-01-06 04:35:00,33.2,27.1,30.10,NW,311,0.0,0.0,78,0.00,,,0.00,0.00,VWS V14.01,2013-01-06 09:35:00,
2013-01-06 04:40:00,33.1,27.0,30.10,NW,311,0.0,0.0,78,0.00,,,0.00,0.00,VWS V14.01,2013-01-06 09:40:00,
2013-01-06 04:45:00,33.0,26.9,30.10,NW,312,0.0,0.0,78,0.00,,,0.00,0.00,VWS V14.01,2013-01-06 09:45:00,
2013-01-06 04:50:00,32.9,26.8,30.10,NW,312,0.0,0.0,78,0.00,,,0.00,0.00,VWS V14.01,2013-01-06 09:50:00,
2013-01-06 04:55:00,32.8,26.7,30.09,NW,312,0.0,0.0,78,0.00,,,0.00,0.00,VWS V14.01,2013-01-06 09:55:00,
2013-01-06 05:00:00,32.6,26.5,30.09,NW,312,0.0,0.0,78,0.00,,,0.00,0.00,VWS V14.01,2013-01-06 10:00:00,
2013-01-06 05:06:00,32.4,26.3,30.09,NW,312,0.0,0.0,78,0.00,,,0.00,0.00,VWS V14.01,2013-01-06 10:06:00,
2013-01-06 05:11:00,32.2,26.1,30.09,NW,312,0.0,0.0,78,0.00,,,0.00,0.00,VWS V14.01,2013-01-06 10:11:00,
2013-01-06 05:16:00,32.0,25.9,30.09,NW,312,0.0,0.0,78,0.00,,,0.00,0.00,VWS V14.01,2013-01-06 10:16:00,
2013-01-06 05:21:00,31.8,25.7,30.09,NW,312,0.0,0.0,78,0.00,,,0.00,0.00,VWS V14.01,2013-01-06 10:21:00,
2013-01-06 05:26:00,31.6,25.5,30.09,NW,312,0.0,0.0,78,0.00,,,0.00,0.00,VWS V14.01,2013-01-06 10:26:00,
2013-01-06 05:31:00,31.4,25.6,30.09,NW,312,0.0,0.0,79,0.00,,,0.00,0.00,VWS V14.01,2013-01-06 10:31:00,
2013-01-06 05:36:00,31.2,25.5,30.09,NW,312,0.0,0.0,79,0.00,,,0.00,0.00,VWS V14.01,2013-01-06 10:36:00,
2013-01-06 05:41:00,31.0,25.3,30.09,NW,312,0.0,0.0,79,0.00,,,0.00,0.00,VWS V14.01,2013-01-06 10:41:00,
2013-01-06 05:47:00,30.7,25.0,30.09,NW,312,0.0,0.0,79,0.00,,,0.00,0.00,VWS V14.01,2013-01-06 10:47:00,
2013-01-06 05:52:00,30.5,24.8,30.09,NW,312,0.0,0.0,79,0.00,,,0.00,0.00,VWS V14.01,2013-01-06 10:52:00,
2013-01-06 05:57:00,30.4,25.0,30.09,NW,312,0.0,0.0,80,0.00,,,0.00,0.00,VWS V14.01,2013-01-06 10:57:00,
2013-01-06 06:02:00,30.2,25.1,30.09,NW,312,0.0,0.0,81,0.00,,,0.00,0.00,VWS V14.01,2013-01-06 11:02:00,
2013-01-06 06:07:00,30.1,25.0,30.09,NW,312,0.0,0.0,81,0.00,,,0.00,0.00,VWS V14.01,2013-01-06 11:07:00,
2013-01-06 06:12:00,30.0,24.9,30.09,NW,312,0.0,0.0,81,0.00,,,0.00,0.00,VWS V14.01,2013-01-06 11:12:00,
2013-01-06 06:17:00,29.9,24.8,30.09,NW,311,0.0,0.0,81,0.00,,,0.00,0.00,VWS V14.01,2013-01-06 11:17:00,
2013-01-06 06:22:00,29.7,24.6,30.09,NW,312,0.0,0.0,81,0.00,,,0.00,0.00,VWS V14.01,2013-01-06 11:22:00,
2013-01-06 06:27:00,29.6,24.8,30.09,NW,311,0.0,0.0,82,0.00,,,0.00,0.00,VWS V14.01,2013-01-06 11:27:00,
2013-01-06 06:33:00,29.5,24.7,30.09,NW,312,0.0,0.0,82,0.00,,,0.00,0.00,VWS V14.01,2013-01-06 11:33:00,
2013-01-06 06:38:00,29.4,24.6,30.10,NW,312,0.0,0.0,82,0.00,,,0.00,0.00,VWS V14.01,2013-01-06 11:38:00,
2013-01-06 06:43:00,29.3,24.5,30.10,NW,312,0.0,0.0,82,0.00,,,0.00,0.00,VWS V14.01,2013-01-06 11:43:00,
2013-01-06 06:48:00,29.2,24.4,30.10,NW,312,0.0,0.0,82,0.00,,,0.00,0.00,VWS V14.01,2013-01-06 11:48:00,
2013-01-06 06:53:00,29.0,24.5,30.10,NW,312,0.0,0.0,83,0.00,,,0.00,0.00,VWS V14.01,2013-01-06 11:53:00,
2013-01-06 06:58:00,29.0,24.8,30.10,NW,312,0.0,0.0,84,0.00,,,0.00,0.00,VWS V14.01,2013-01-06 11:58:00,
2013-01-06 07:03:00,28.9,24.7,30.10,NW,312,0.0,0.0,84,0.00,,,0.00,0.00,VWS V14.01,2013-01-06 12:03:00,
2013-01-06 07:08:00,28.9,24.7,30.10,NW,311,0.0,0.0,84,0.00,,,0.00,0.00,VWS V14.01,2013-01-06 12:08:00,
2013-01-06 07:13:00,28.9,24.7,30.10,NW,312,0.0,0.0,84,0.00,,,0.00,0.00,VWS V14.01,2013-01-06 12:13:00,
2013-01-06 07:19:00,28.9,25.0,30.10,NW,312,0.0,0.0,85,0.00,,,0.00,0.00,VWS V14.01,2013-01-06 12:19:00,
2013-01-06 07:24:00,28.9,25.0,30.11,NW,312,0.0,0.0,85,0.00,,,0.00,0.00,VWS V14.01,2013-01-06 12:24:00,
2013-01-06 07:29:00,28.9,25.0,30.10,NW,311,0.0,0.0,85,0.00,,,0.00,0.00,VWS V14.01,2013-01-06 12:29:00,
2013-01-06 07:34:00,29.0,25.1,30.10,NW,311,0.0,0.0,85,0.00,,,0.00,0.00,VWS V14.01,2013-01-06 12:34:00,
2013-01-06 07:39:00,29.1,25.4,30.10,NW,312,0.0,0.0,86,0.00,,,0.00,5.00,VWS V14.01,2013-01-06 12:39:00,
2013-01-06 07:44:00,29.3,25.6,30.11,NW,312,0.0,1.0,86,0.00,,,0.00,11.00,VWS V14.01,2013-01-06 12:44:00,
2013-01-06 07:49:00,29.6,26.2,30.11,NW,312,0.0,0.0,87,0.00,,,0.00,16.00,VWS V14.01,2013-01-06 12:49:00,
2013-01-06 07:54:00,29.9,26.2,30.10,NW,312,0.0,0.0,86,0.00,,,0.00,26.00,VWS V14.01,2013-01-06 12:54:00,
2013-01-06 07:59:00,30.3,26.6,30.10,NW,312,0.0,0.0,86,0.00,,,0.00,30.00,VWS V14.01,2013-01-06 12:59:00,
2013-01-06 08:05:00,30.6,26.9,30.10,NW,311,0.0,0.0,86,0.00,,,0.00,44.00,VWS V14.01,2013-01-06 13:05:00,
2013-01-06 08:10:00,30.9,27.2,30.10,NW,310,0.0,1.0,86,0.00,,,0.00,53.00,VWS V14.01,2013-01-06 13:10:00,
2013-01-06 08:15:00,31.3,27.3,30.11,NW,310,0.0,0.0,85,0.00,,,0.00,51.00,VWS V14.01,2013-01-06 13:15:00,
2013-01-06 08:20:00,31.7,27.7,30.10,SSW,192,0.0,2.0,85,0.00,,,0.00,44.00,VWS V14.01,2013-01-06 13:20:00,
2013-01-06 08:25:00,32.1,27.8,30.10,SSW,194,0.0,2.0,84,0.00,,,0.00,37.00,VWS V14.01,2013-01-06 13:25:00,
2013-01-06 08:30:00,32.4,28.1,30.11,SSW,194,0.0,2.0,84,0.00,,,0.00,67.00,VWS V14.01,2013-01-06 13:30:00,
2013-01-06 08:35:00,32.7,28.1,30.10,SSW,198,0.0,3.0,83,0.00,,,0.00,62.00,VWS V14.01,2013-01-06 13:35:00,
2013-01-06 08:40:00,33.1,28.2,30.11,SSW,198,0.0,3.0,82,0.00,,,0.00,79.00,VWS V14.01,2013-01-06 13:40:00,
2013-01-06 08:45:00,33.3,28.4,30.11,SSW,198,0.0,1.0,82,0.00,,,0.00,65.00,VWS V14.01,2013-01-06 13:45:00,
2013-01-06 08:50:00,33.5,28.3,30.10,South,188,0.0,2.0,81,0.00,,,0.00,37.00,VWS V14.01,2013-01-06 13:50:00,
2013-01-06 08:55:00,33.7,28.2,30.10,SSW,208,0.0,4.0,80,0.00,,,0.00,47.00,VWS V14.01,2013-01-06 13:55:00,
2013-01-06 09:00:00,33.9,28.4,30.11,SSW,207,0.0,0.0,80,0.00,,,0.00,60.00,VWS V14.01,2013-01-06 14:00:00,
2013-01-06 09:05:00,34.0,28.5,30.10,SSW,207,0.0,0.0,80,0.00,,,0.00,88.00,VWS V14.01,2013-01-06 14:05:00,
2013-01-06 09:10:00,34.2,28.4,30.10,SSW,208,0.0,1.0,79,0.00,,,0.00,69.00,VWS V14.01,2013-01-06 14:10:00,
2013-01-06 09:15:00,34.3,28.5,30.10,SSW,208,0.0,2.0,79,0.00,,,0.00,74.00,VWS V14.01,2013-01-06 14:15:00,
2013-01-06 09:20:00,34.4,28.3,30.10,SSW,207,0.0,0.0,78,0.00,,,0.00,77.00,VWS V14.01,2013-01-06 14:20:00,
2013-01-06 09:25:00,34.4,28.3,30.10,SSW,208,0.0,0.0,78,0.00,,,0.00,74.00,VWS V14.01,2013-01-06 14:25:00,
2013-01-06 09:30:00,34.4,28.0,30.10,SSW,208,0.0,0.0,77,0.00,,,0.00,83.00,VWS V14.01,2013-01-06 14:30:00,
2013-01-06 09:35:00,34.7,28.2,30.11,SSW,208,0.0,1.0,77,0.00,,,0.00,95.00,VWS V14.01,2013-01-06 14:35:00,
2013-01-06 09:40:00,35.0,28.5,30.10,SSW,207,1.0,1.0,77,0.00,,,0.00,123.00,VWS V14.01,2013-01-06 14:40:00,
2013-01-06 09:46:00,35.6,28.8,30.11,SSW,208,0.0,1.0,76,0.00,,,0.00,95.00,VWS V14.01,2013-01-06 14:46:00,
2013-01-06 09:51:00,36.2,29.4,30.11,SSW,208,0.0,0.0,76,0.00,,,0.00,84.00,VWS V14.01,2013-01-06 14:51:00,
2013-01-06 09:56:00,36.8,29.3,30.11,SSW,207,1.0,4.0,74,0.00,,,0.00,118.00,VWS V14.01,2013-01-06 14:56:00,
2013-01-06 10:01:00,37.3,29.1,30.11,SSW,207,4.0,5.0,72,0.00,,,0.00,123.00,VWS V14.01,2013-01-06 15:01:00,
2013-01-06 10:06:00,37.7,29.2,30.11,SSW,197,1.0,4.0,71,0.00,,,0.00,100.00,VWS V14.01,2013-01-06 15:06:00,
2013-01-06 10:11:00,38.3,30.1,30.11,South,179,1.0,4.0,72,0.00,,,0.00,158.00,VWS V14.01,2013-01-06 15:11:00,
2013-01-06 10:16:00,38.8,30.6,30.11,SSW,202,4.0,4.0,72,0.00,,,0.00,155.00,VWS V14.01,2013-01-06 15:16:00,
2013-01-06 10:21:00,39.2,30.2,30.11,SSW,195,3.0,4.0,70,0.00,,,0.00,192.00,VWS V14.01,2013-01-06 15:21:00,
2013-01-06 10:26:00,39.8,29.8,30.10,SSW,205,2.0,5.0,67,0.00,,,0.00,250.00,VWS V14.01,2013-01-06 15:26:00,
2013-01-06 10:32:00,40.6,30.1,30.10,SSW,200,2.0,4.0,66,0.00,,,0.00,190.00,VWS V14.01,2013-01-06 15:32:00,
2013-01-06 10:37:00,41.2,30.3,30.10,SSW,200,1.0,3.0,65,0.00,,,0.00,243.00,VWS V14.01,2013-01-06 15:37:00,
2013-01-06 10:42:00,41.9,29.9,30.10,SSW,207,4.0,4.0,62,0.00,,,0.00,158.00,VWS V14.01,2013-01-06 15:42:00,
2013-01-06 10:47:00,42.3,29.8,30.10,SSW,209,5.0,7.0,61,0.00,,,0.00,190.00,VWS V14.01,2013-01-06 15:47:00,
2013-01-06 10:52:00,42.8,29.5,30.10,SSW,196,1.0,6.0,59,0.00,,,0.00,323.00,VWS V14.01,2013-01-06 15:52:00,
2013-01-06 10:57:00,43.6,30.2,30.10,SSW,209,0.0,3.0,59,0.00,,,0.00,353.00,VWS V14.01,2013-01-06 15:57:00,
2013-01-06 11:02:00,44.1,30.3,30.09,SW,232,0.0,5.0,58,0.00,,,0.00,214.00,VWS V14.01,2013-01-06 16:02:00,
2013-01-06 11:07:00,44.0,29.8,30.09,SSW,200,4.0,6.0,57,0.00,,,0.00,192.00,VWS V14.01,2013-01-06 16:07:00,
2013-01-06 11:13:00,43.8,30.0,30.09,SW,214,2.0,5.0,58,0.00,,,0.00,190.00,VWS V14.01,2013-01-06 16:13:00,
2013-01-06 11:18:00,43.6,29.8,30.09,SSW,200,4.0,5.0,58,0.00,,,0.00,185.00,VWS V14.01,2013-01-06 16:18:00,
2013-01-06 11:23:00,43.5,30.1,30.08,SSW,202,3.0,5.0,59,0.00,,,0.00,178.00,VWS V14.01,2013-01-06 16:23:00,
2013-01-06 11:28:00,43.5,30.1,30.08,SSW,207,1.0,4.0,59,0.00,,,0.00,181.00,VWS V14.01,2013-01-06 16:28:00,
2013-01-06 11:33:00,43.5,30.1,30.08,SSW,193,0.0,5.0,59,0.00,,,0.00,183.00,VWS V14.01,2013-01-06 16:33:00,
2013-01-06 11:38:00,43.6,30.2,30.07,SSW,202,4.0,6.0,59,0.00,,,0.00,185.00,VWS V14.01,2013-01-06 16:38:00,
2013-01-06 11:43:00,43.7,30.3,30.07,SSW,198,1.0,6.0,59,0.00,,,0.00,199.00,VWS V14.01,2013-01-06 16:43:00,
2013-01-06 11:48:00,44.0,30.6,30.07,SW,216,0.0,4.0,59,0.00,,,0.00,197.00,VWS V14.01,2013-01-06 16:48:00,
2013-01-06 11:54:00,44.2,30.8,30.07,SW,217,0.0,3.0,59,0.00,,,0.00,199.00,VWS V14.01,2013-01-06 16:54:00,
2013-01-06 11:59:00,44.3,30.9,30.06,SSW,194,2.0,6.0,59,0.00,,,0.00,204.00,VWS V14.01,2013-01-06 16:59:00,
2013-01-06 12:04:00,44.3,30.9,30.05,SSW,198,5.0,5.0,59,0.00,,,0.00,223.00,VWS V14.01,2013-01-06 17:04:00,
2013-01-06 12:09:00,44.3,30.5,30.05,South,187,1.0,7.0,58,0.00,,,0.00,251.00,VWS V14.01,2013-01-06 17:09:00,
2013-01-06 12:14:00,44.6,30.8,30.04,SW,227,0.0,4.0,58,0.00,,,0.00,267.00,VWS V14.01,2013-01-06 17:14:00,
2013-01-06 12:19:00,45.0,31.1,30.04,SSW,203,3.0,3.0,58,0.00,,,0.00,292.00,VWS V14.01,2013-01-06 17:19:00,
2013-01-06 12:24:00,45.4,31.5,30.04,SSW,204,0.0,4.0,58,0.00,,,0.00,244.00,VWS V14.01,2013-01-06 17:24:00,
2013-01-06 12:29:00,45.5,30.7,30.04,SSW,203,0.0,8.0,56,0.00,,,0.00,221.00,VWS V14.01,2013-01-06 17:29:00,
2013-01-06 12:34:00,45.5,30.7,30.04,SW,217,1.0,6.0,56,0.00,,,0.00,225.00,VWS V14.01,2013-01-06 17:34:00,
2013-01-06 12:39:00,45.5,30.3,30.03,WNW,302,0.0,9.0,55,0.00,,,0.00,236.00,VWS V14.01,2013-01-06 17:39:00,
2013-01-06 12:45:00,45.5,29.8,30.03,SSW,209,4.0,8.0,54,0.00,,,0.00,243.00,VWS V14.01,2013-01-06 17:45:00,
2013-01-06 12:50:00,45.4,30.2,30.03,SSW,210,5.0,8.0,55,0.00,,,0.00,260.00,VWS V14.01,2013-01-06 17:50:00,
2013-01-06 12:55:00,45.5,30.3,30.02,SSW,198,7.0,9.0,55,0.00,,,0.00,279.00,VWS V14.01,2013-01-06 17:55:00,
2013-01-06 13:00:00,45.5,30.3,30.02,WSW,257,1.0,10.0,55,0.00,,,0.00,229.00,VWS V14.01,2013-01-06 18:00:00,
2013-01-06 13:05:00,45.4,30.2,30.02,SW,218,1.0,7.0,55,0.00,,,0.00,204.00,VWS V14.01,2013-01-06 18:05:00,
2013-01-06 13:10:00,45.5,30.7,30.02,SSW,206,2.0,4.0,56,0.00,,,0.00,241.00,VWS V14.01,2013-01-06 18:10:00,
2013-01-06 13:15:00,45.5,30.7,30.02,WSW,249,2.0,2.0,56,0.00,,,0.00,229.00,VWS V14.01,2013-01-06 18:15:00,
2013-01-06 13:20:00,45.6,30.4,30.01,SW,225,1.0,3.0,55,0.00,,,0.00,204.00,VWS V14.01,2013-01-06 18:20:00,
2013-01-06 13:26:00,45.6,30.4,30.01,SW,221,4.0,8.0,55,0.00,,,0.00,214.00,VWS V14.01,2013-01-06 18:26:00,
2013-01-06 13:31:00,45.5,30.3,30.01,SSW,196,4.0,6.0,55,0.00,,,0.00,211.00,VWS V14.01,2013-01-06 18:31:00,
2013-01-06 13:36:00,45.5,30.3,30.01,WSW,242,0.0,6.0,55,0.00,,,0.00,209.00,VWS V14.01,2013-01-06 18:36:00,
2013-01-06 13:41:00,45.6,30.4,30.01,South,186,2.0,5.0,55,0.00,,,0.00,211.00,VWS V14.01,2013-01-06 18:41:00,
2013-01-06 13:46:00,45.6,30.4,30.01,SSW,213,2.0,2.0,55,0.00,,,0.00,202.00,VWS V14.01,2013-01-06 18:46:00,
2013-01-06 13:51:00,45.7,30.5,30.01,SSW,200,3.0,4.0,55,0.00,,,0.00,200.00,VWS V14.01,2013-01-06 18:51:00,
2013-01-06 13:56:00,45.7,30.9,30.01,SW,232,2.0,5.0,56,0.00,,,0.00,195.00,VWS V14.01,2013-01-06 18:56:00,
2013-01-06 14:01:00,45.7,30.5,30.01,SW,230,0.0,2.0,55,0.00,,,0.00,301.00,VWS V14.01,2013-01-06 19:01:00,
2013-01-06 14:07:00,46.2,30.9,30.01,SSW,211,2.0,4.0,55,0.00,,,0.00,283.00,VWS V14.01,2013-01-06 19:07:00,
2013-01-06 14:12:00,46.6,30.9,30.01,WSW,253,2.0,7.0,54,0.00,,,0.00,269.00,VWS V14.01,2013-01-06 19:12:00,
2013-01-06 14:17:00,46.7,31.0,30.01,WSW,241,5.0,6.0,54,0.00,,,0.00,190.00,VWS V14.01,2013-01-06 19:17:00,
2013-01-06 14:22:00,46.5,30.3,30.00,South,186,3.0,9.0,53,0.00,,,0.00,178.00,VWS V14.01,2013-01-06 19:22:00,
2013-01-06 14:27:00,46.2,30.5,30.00,South,186,4.0,7.0,54,0.00,,,0.00,160.00,VWS V14.01,2013-01-06 19:27:00,
2013-01-06 14:32:00,46.0,30.8,30.00,South,184,6.0,6.0,55,0.00,,,0.00,146.00,VWS V14.01,2013-01-06 19:32:00,
2013-01-06 14:37:00,45.9,30.7,30.01,SW,219,1.0,4.0,55,0.00,,,0.00,142.00,VWS V14.01,2013-01-06 19:37:00,
2013-01-06 14:48:00,45.8,30.6,30.00,SSW,206,0.0,4.0,55,0.00,,,0.00,111.00,VWS V14.01,2013-01-06 19:48:00,
2013-01-06 14:53:00,45.7,30.0,30.01,WSW,248,3.0,9.0,54,0.00,,,0.00,97.00,VWS V14.01,2013-01-06 19:53:00,
2013-01-06 14:58:00,45.6,30.4,30.00,WSW,252,2.0,6.0,55,0.00,,,0.00,88.00,VWS V14.01,2013-01-06 19:58:00,
2013-01-06 15:04:00,45.6,30.4,30.01,WSW,251,2.0,6.0,55,0.00,,,0.00,83.00,VWS V14.01,2013-01-06 20:04:00,
2013-01-06 15:10:00,45.5,30.3,30.01,WSW,252,2.0,8.0,55,0.00,,,0.00,88.00,VWS V14.01,2013-01-06 20:10:00,
2013-01-06 15:11:00,45.5,30.3,30.00,SW,217,3.0,3.0,55,0.00,,,0.00,90.00,VWS V14.01,2013-01-06 20:11:00,
2013-01-06 15:14:00,45.5,30.3,30.01,SW,221,3.0,6.0,55,0.00,,,0.00,90.00,VWS V14.01,2013-01-06 20:14:00,
2013-01-06 15:19:00,45.4,30.2,30.01,SSW,202,5.0,7.0,55,0.00,,,0.00,98.00,VWS V14.01,2013-01-06 20:19:00,
2013-01-06 15:24:00,45.4,30.2,30.01,WSW,254,4.0,5.0,55,0.00,,,0.00,91.00,VWS V14.01,2013-01-06 20:24:00,
2013-01-06 15:29:00,45.4,30.6,30.01,SSW,208,1.0,5.0,56,0.00,,,0.00,79.00,VWS V14.01,2013-01-06 20:29:00,
2013-01-06 15:34:00,45.3,30.5,30.01,SSW,205,4.0,4.0,56,0.00,,,0.00,86.00,VWS V14.01,2013-01-06 20:34:00,
2013-01-06 15:39:00,45.3,30.5,30.01,SW,230,2.0,4.0,56,0.00,,,0.00,83.00,VWS V14.01,2013-01-06 20:39:00,
2013-01-06 15:44:00,45.3,31.0,30.01,SW,232,3.0,6.0,57,0.00,,,0.00,76.00,VWS V14.01,2013-01-06 20:44:00,
2013-01-06 15:50:00,45.2,30.9,30.01,WSW,256,0.0,6.0,57,0.00,,,0.00,56.00,VWS V14.01,2013-01-06 20:50:00,
2013-01-06 15:55:00,45.1,30.8,30.00,WSW,240,1.0,4.0,57,0.00,,,0.00,46.00,VWS V14.01,2013-01-06 20:55:00,
2013-01-06 16:00:00,45.0,30.7,30.01,SW,232,1.0,5.0,57,0.00,,,0.00,42.00,VWS V14.01,2013-01-06 21:00:00,
2013-01-06 16:01:00,45.0,30.7,30.01,WSW,247,0.0,6.0,57,0.00,,,0.00,42.00,VWS V14.01,2013-01-06 21:01:00,
2013-01-06 16:06:00,45.0,30.7,30.00,WSW,244,1.0,3.0,57,0.00,,,0.00,37.00,VWS V14.01,2013-01-06 21:06:00,
2013-01-06 16:11:00,44.9,30.6,30.01,SW,220,2.0,2.0,57,0.00,,,0.00,28.00,VWS V14.01,2013-01-06 21:11:00,
2013-01-06 16:17:00,44.8,30.9,30.01,SW,227,3.0,3.0,58,0.00,,,0.00,21.00,VWS V14.01,2013-01-06 21:17:00,
2013-01-06 16:22:00,44.7,30.9,30.01,SW,234,0.0,1.0,58,0.00,,,0.00,14.00,VWS V14.01,2013-01-06 21:22:00,
2013-01-06 16:27:00,44.6,30.8,30.01,SW,234,0.0,0.0,58,0.00,,,0.00,11.00,VWS V14.01,2013-01-06 21:27:00,
2013-01-06 16:32:00,44.4,30.6,30.01,SW,233,0.0,0.0,58,0.00,,,0.00,9.00,VWS V14.01,2013-01-06 21:32:00,
2013-01-06 16:37:00,44.3,30.9,30.01,SW,232,0.0,2.0,59,0.00,,,0.00,9.00,VWS V14.01,2013-01-06 21:37:00,
2013-01-06 16:42:00,44.2,30.8,30.01,SW,232,0.0,0.0,59,0.00,,,0.00,7.00,VWS V14.01,2013-01-06 21:42:00,
2013-01-06 16:47:00,44.1,30.7,30.01,SW,222,0.0,4.0,59,0.00,,,0.00,5.00,VWS V14.01,2013-01-06 21:47:00,
2013-01-06 16:52:00,43.9,30.5,30.01,SW,229,0.0,2.0,59,0.00,,,0.00,0.00,VWS V14.01,2013-01-06 21:52:00,
2013-01-06 16:58:00,43.9,30.5,30.01,SW,233,0.0,2.0,59,0.00,,,0.00,0.00,VWS V14.01,2013-01-06 21:58:00,
2013-01-06 17:03:00,43.8,30.4,30.01,SW,232,0.0,2.0,59,0.00,,,0.00,0.00,VWS V14.01,2013-01-06 22:03:00,
2013-01-06 17:08:00,43.7,30.3,30.02,SW,232,0.0,1.0,59,0.00,,,0.00,0.00,VWS V14.01,2013-01-06 22:08:00,
2013-01-06 17:13:00,43.6,30.2,30.02,SW,232,0.0,0.0,59,0.00,,,0.00,0.00,VWS V14.01,2013-01-06 22:13:00,
2013-01-06 17:18:00,43.5,30.1,30.02,SW,232,0.0,1.0,59,0.00,,,0.00,0.00,VWS V14.01,2013-01-06 22:18:00,
2013-01-06 17:23:00,43.4,30.0,30.02,SW,230,0.0,1.0,59,0.00,,,0.00,0.00,VWS V14.01,2013-01-06 22:23:00,
2013-01-06 17:28:00,43.3,30.4,30.03,SW,231,0.0,1.0,60,0.00,,,0.00,0.00,VWS V14.01,2013-01-06 22:28:00,
2013-01-06 17:34:00,43.2,30.3,30.02,SW,231,0.0,1.0,60,0.00,,,0.00,0.00,VWS V14.01,2013-01-06 22:34:00,
2013-01-06 17:39:00,43.2,30.3,30.03,SW,231,0.0,1.0,60,0.00,,,0.00,0.00,VWS V14.01,2013-01-06 22:39:00,
2013-01-06 17:44:00,43.1,30.2,30.03,SW,231,0.0,0.0,60,0.00,,,0.00,0.00,VWS V14.01,2013-01-06 22:44:00,
2013-01-06 17:49:00,43.0,30.1,30.04,SW,231,0.0,1.0,60,0.00,,,0.00,0.00,VWS V14.01,2013-01-06 22:49:00,
2013-01-06 17:54:00,42.9,30.0,30.03,SW,230,0.0,0.0,60,0.00,,,0.00,0.00,VWS V14.01,2013-01-06 22:54:00,
2013-01-06 17:59:00,42.8,30.3,30.03,SW,231,0.0,0.0,61,0.00,,,0.00,0.00,VWS V14.01,2013-01-06 22:59:00,
2013-01-06 18:04:00,42.7,30.2,30.03,SW,231,0.0,1.0,61,0.00,,,0.00,0.00,VWS V14.01,2013-01-06 23:04:00,
2013-01-06 18:09:00,42.6,30.5,30.04,SW,231,0.0,1.0,62,0.00,,,0.00,0.00,VWS V14.01,2013-01-06 23:09:00,
2013-01-06 18:14:00,42.5,30.4,30.04,SW,231,0.0,0.0,62,0.00,,,0.00,0.00,VWS V14.01,2013-01-06 23:14:00,
2013-01-06 18:20:00,42.4,30.3,30.04,West,266,0.0,3.0,62,0.00,,,0.00,0.00,VWS V14.01,2013-01-06 23:20:00,
2013-01-06 18:25:00,42.4,30.7,30.04,NW,306,2.0,2.0,63,0.00,,,0.00,0.00,VWS V14.01,2013-01-06 23:25:00,
2013-01-06 18:30:00,42.5,30.4,30.04,NW,317,1.0,8.0,62,0.00,,,0.00,0.00,VWS V14.01,2013-01-06 23:30:00,
2013-01-06 18:35:00,42.7,30.6,30.05,NW,304,0.0,5.0,62,0.00,,,0.00,0.00,VWS V14.01,2013-01-06 23:35:00,
2013-01-06 18:40:00,42.9,30.8,30.05,NW,311,0.0,8.0,62,0.00,,,0.00,0.00,VWS V14.01,2013-01-06 23:40:00,
2013-01-06 18:45:00,43.1,31.0,30.05,NW,315,0.0,8.0,62,0.00,,,0.00,0.00,VWS V14.01,2013-01-06 23:45:00,
2013-01-06 18:50:00,43.1,30.6,30.05,NW,304,1.0,6.0,61,0.00,,,0.00,0.00,VWS V14.01,2013-01-06 23:50:00,
2013-01-06 18:55:00,43.2,30.7,30.05,NW,306,3.0,3.0,61,0.00,,,0.00,0.00,VWS V14.01,2013-01-06 23:55:00,
2013-01-06 19:00:00,43.2,30.7,30.06,NNW,327,4.0,4.0,61,0.00,,,0.00,0.00,VWS V14.01,2013-01-07 00:00:00,
2013-01-06 19:05:00,43.2,30.7,30.06,NW,310,0.0,2.0,61,0.00,,,0.00,0.00,VWS V14.01,2013-01-07 00:05:00,
2013-01-06 19:10:00,43.2,30.7,30.06,NW,315,3.0,5.0,61,0.00,,,0.00,0.00,VWS V14.01,2013-01-07 00:10:00,
2013-01-06 19:15:00,43.2,30.7,30.06,WNW,298,0.0,0.0,61,0.00,,,0.00,0.00,VWS V14.01,2013-01-07 00:15:00,
2013-01-06 19:21:00,43.2,31.1,30.06,NW,323,5.0,6.0,62,0.00,,,0.00,0.00,VWS V14.01,2013-01-07 00:21:00,
2013-01-06 19:26:00,43.2,30.7,30.06,NW,306,3.0,5.0,61,0.00,,,0.00,0.00,VWS V14.01,2013-01-07 00:26:00,
2013-01-06 19:31:00,43.2,31.1,30.06,WNW,298,1.0,2.0,62,0.00,,,0.00,0.00,VWS V14.01,2013-01-07 00:31:00,
2013-01-06 19:36:00,43.2,31.1,30.06,NW,323,0.0,2.0,62,0.00,,,0.00,0.00,VWS V14.01,2013-01-07 00:36:00,
2013-01-06 19:41:00,43.1,31.0,30.06,WNW,302,0.0,3.0,62,0.00,,,0.00,0.00,VWS V14.01,2013-01-07 00:41:00,
2013-01-06 19:46:00,43.1,31.0,30.06,West,269,0.0,1.0,62,0.00,,,0.00,0.00,VWS V14.01,2013-01-07 00:46:00,
2013-01-06 19:51:00,43.0,30.9,30.06,NW,306,0.0,0.0,62,0.00,,,0.00,0.00,VWS V14.01,2013-01-07 00:51:00,
2013-01-06 19:56:00,43.0,30.9,30.06,WNW,290,0.0,1.0,62,0.00,,,0.00,0.00,VWS V14.01,2013-01-07 00:56:00,
2013-01-06 20:01:00,42.9,30.8,30.06,WNW,300,0.0,6.0,62,0.00,,,0.00,0.00,VWS V14.01,2013-01-07 01:01:00,
2013-01-06 20:06:00,42.9,30.8,30.06,West,276,0.0,3.0,62,0.00,,,0.00,0.00,VWS V14.01,2013-01-07 01:06:00,
2013-01-06 20:12:00,42.8,31.1,30.06,West,279,2.0,2.0,63,0.00,,,0.00,0.00,VWS V14.01,2013-01-07 01:12:00,
2013-01-06 20:17:00,42.7,31.0,30.06,NW,319,0.0,3.0,63,0.00,,,0.00,0.00,VWS V14.01,2013-01-07 01:17:00,
2013-01-06 20:22:00,42.7,31.0,30.06,WNW,286,2.0,2.0,63,0.00,,,0.00,0.00,VWS V14.01,2013-01-07 01:22:00,
2013-01-06 20:27:00,42.6,30.9,30.06,WNW,283,0.0,3.0,63,0.00,,,0.00,0.00,VWS V14.01,2013-01-07 01:27:00,
2013-01-06 20:32:00,42.5,30.8,30.06,WSW,251,0.0,1.0,63,0.00,,,0.00,0.00,VWS V14.01,2013-01-07 01:32:00,
2013-01-06 20:37:00,42.5,30.8,30.06,WSW,252,0.0,0.0,63,0.00,,,0.00,0.00,VWS V14.01,2013-01-07 01:37:00,
2013-01-06 20:42:00,42.4,30.7,30.06,WSW,252,0.0,0.0,63,0.00,,,0.00,0.00,VWS V14.01,2013-01-07 01:42:00,
2013-01-06 20:48:00,42.3,30.6,30.06,West,263,0.0,0.0,63,0.00,,,0.00,0.00,VWS V14.01,2013-01-07 01:48:00,
2013-01-06 20:53:00,42.2,30.9,30.07,West,271,0.0,3.0,64,0.00,,,0.00,0.00,VWS V14.01,2013-01-07 01:53:00,
2013-01-06 20:58:00,42.2,30.9,30.07,West,273,0.0,0.0,64,0.00,,,0.00,0.00,VWS V14.01,2013-01-07 01:58:00,
2013-01-06 21:03:00,42.1,30.8,30.07,West,273,0.0,0.0,64,0.00,,,0.00,0.00,VWS V14.01,2013-01-07 02:03:00,
2013-01-06 21:08:00,42.0,30.7,30.07,West,273,0.0,0.0,64,0.00,,,0.00,0.00,VWS V14.01,2013-01-07 02:08:00,
2013-01-06 21:13:00,41.9,30.6,30.07,West,272,0.0,1.0,64,0.00,,,0.00,0.00,VWS V14.01,2013-01-07 02:13:00,
2013-01-06 21:18:00,41.9,30.6,30.07,West,272,0.0,0.0,64,0.00,,,0.00,0.00,VWS V14.01,2013-01-07 02:18:00,
2013-01-06 21:23:00,41.8,30.9,30.08,West,272,0.0,0.0,65,0.00,,,0.00,0.00,VWS V14.01,2013-01-07 02:23:00,
2013-01-06 21:28:00,41.7,30.8,30.07,West,272,0.0,0.0,65,0.00,,,0.00,0.00,VWS V14.01,2013-01-07 02:28:00,
2013-01-06 21:34:00,41.5,30.6,30.07,West,272,0.0,0.0,65,0.00,,,0.00,0.00,VWS V14.01,2013-01-07 02:34:00,
2013-01-06 21:39:00,41.4,30.5,30.08,West,272,0.0,0.0,65,0.00,,,0.00,0.00,VWS V14.01,2013-01-07 02:39:00,
2013-01-06 21:44:00,41.3,30.8,30.08,West,272,0.0,0.0,66,0.00,,,0.00,0.00,VWS V14.01,2013-01-07 02:44:00,
2013-01-06 21:50:00,41.1,30.6,30.08,West,272,0.0,0.0,66,0.00,,,0.00,0.00,VWS V14.01,2013-01-07 02:50:00,
2013-01-06 21:55:00,41.0,30.5,30.08,West,272,0.0,0.0,66,0.00,,,0.00,0.00,VWS V14.01,2013-01-07 02:55:00,
2013-01-06 22:00:00,40.8,30.3,30.08,West,272,0.0,0.0,66,0.00,,,0.00,0.00,VWS V14.01,2013-01-07 03:00:00,
2013-01-06 22:05:00,40.6,30.1,30.08,West,272,0.0,0.0,66,0.00,,,0.00,0.00,VWS V14.01,2013-01-07 03:05:00,
2013-01-06 22:10:00,40.4,30.3,30.08,West,272,0.0,1.0,67,0.00,,,0.00,0.00,VWS V14.01,2013-01-07 03:10:00,
2013-01-06 22:15:00,40.2,30.1,30.08,West,272,0.0,0.0,67,0.00,,,0.00,0.00,VWS V14.01,2013-01-07 03:15:00,
2013-01-06 22:20:00,40.0,30.3,30.08,West,272,0.0,0.0,68,0.00,,,0.00,0.00,VWS V14.01,2013-01-07 03:20:00,
2013-01-06 22:25:00,39.9,30.2,30.09,West,276,0.0,3.0,68,0.00,,,0.00,0.00,VWS V14.01,2013-01-07 03:25:00,
2013-01-06 22:30:00,39.8,30.1,30.09,West,277,0.0,0.0,68,0.00,,,0.00,0.00,VWS V14.01,2013-01-07 03:30:00,
2013-01-06 22:35:00,39.7,30.0,30.09,West,277,0.0,0.0,68,0.00,,,0.00,0.00,VWS V14.01,2013-01-07 03:35:00,
2013-01-06 22:40:00,39.7,30.0,30.09,West,276,0.0,0.0,68,0.00,,,0.00,0.00,VWS V14.01,2013-01-07 03:40:00,
2013-01-06 22:45:00,39.6,29.9,30.09,West,276,0.0,0.0,68,0.00,,,0.00,0.00,VWS V14.01,2013-01-07 03:45:00,
2013-01-06 22:50:00,39.6,30.3,30.10,West,276,0.0,0.0,69,0.00,,,0.00,0.00,VWS V14.01,2013-01-07 03:50:00,
2013-01-06 22:55:00,39.6,30.3,30.10,West,277,0.0,0.0,69,0.00,,,0.00,0.00,VWS V14.01,2013-01-07 03:55:00,
2013-01-06 23:01:00,39.6,30.3,30.10,West,277,0.0,0.0,69,0.00,,,0.00,0.00,VWS V14.01,2013-01-07 04:01:00,
2013-01-06 23:06:00,39.8,30.5,30.10,WNW,302,1.0,1.0,69,0.00,,,0.00,0.00,VWS V14.01,2013-01-07 04:06:00,
2013-01-06 23:11:00,40.0,30.7,30.10,WNW,302,0.0,0.0,69,0.00,,,0.00,0.00,VWS V14.01,2013-01-07 04:11:00,
2013-01-06 23:16:00,40.1,30.8,30.11,WNW,302,0.0,0.0,69,0.00,,,0.00,0.00,VWS V14.01,2013-01-07 04:16:00,
2013-01-06 23:21:00,40.2,30.9,30.11,WNW,302,0.0,0.0,69,0.00,,,0.00,0.00,VWS V14.01,2013-01-07 04:21:00,
2013-01-06 23:26:00,40.3,31.0,30.12,NW,322,1.0,2.0,69,0.00,,,0.00,0.00,VWS V14.01,2013-01-07 04:26:00,
2013-01-06 23:31:00,40.4,31.4,30.12,NW,310,3.0,5.0,70,0.00,,,0.00,0.00,VWS V14.01,2013-01-07 04:31:00,
2013-01-06 23:36:00,40.7,31.7,30.12,NNW,329,2.0,4.0,70,0.00,,,0.00,0.00,VWS V14.01,2013-01-07 04:36:00,
2013-01-06 23:41:00,41.0,32.0,30.12,NW,311,0.0,5.0,70,0.00,,,0.00,0.00,VWS V14.01,2013-01-07 04:41:00,
2013-01-06 23:46:00,41.2,32.2,30.13,NNW,332,3.0,3.0,70,0.00,,,0.00,0.00,VWS V14.01,2013-01-07 04:46:00,
2013-01-06 23:52:00,41.3,32.3,30.13,NW,309,4.0,4.0,70,0.00,,,0.00,0.00,VWS V14.01,2013-01-07 04:52:00,
2013-01-06 23:57:00,41.3,32.3,30.13,NNW,329,5.0,6.0,70,0.00,,,0.00,0.00,VWS V14.01,2013-01-07 04:57:00,